Résultats

20KM - Course Nature Vitrolles. Édition 2019.

21 Km
14/12/2019 à 09:30:00 - VITROLLES (13)
129 arrivant(e)s.





Place▲ Temps Dossard Nom Prenom Categ #Categ Sexe #Sexe Club Vit Moy Diplôme Photo Partager
1 01:29:43 333 ZAOUCHKEVITCH CYRIL M3M 1 M 1 PACARAID 13.38
2 01:30:27 227 CAMBON GUILLAUME SEM 1 M 2 CHAMEAUX DE BEZIERS 13.27
3 01:31:21 248 FIX JEAN-SEBASTIEN SEM 2 M 3 13.14
4 01:37:08 316 RUIZ-FLORES JOSE M1M 1 M 4 ATHLETIC BERRE CLUB 12.35
5 01:38:04 303 PAGEON PIERRE M0M 1 M 5 TEAM RAIDLIGHT GRAND SUD EST 12.24
6 01:38:39 330 VIDAL ANNICK M0F 1 F 1 VITROLLES TRIATHLON 12.16
7 01:38:42 240 DESSE JEAN-YVES M3M 2 M 6 SALON TRIATHLON 12.16
8 01:40:18 205 ARNIAUD ERIC M3M 3 M 7 COURIR A MEYREUIL 11.96
9 01:42:04 267 HANNA PIERRE M3M 4 M 8 11.76
10 01:42:21 277 LANTENET PATRICK M5M 1 M 9 11.72
11 01:42:33 283 LUDOVIC RENARD M1M 2 M 10 11.70
12 01:42:38 252 FORGNON THOMAS M0M 2 M 11 ROGNAC ATHLETIC CLUB 11.69
13 01:43:33 214 BEL-BACHIR ABDEL M4M 1 M 12 EMBRUN TRIATHLON CLUB 11.59
14 01:45:36 335 LOPES ERIC M1M 3 M 13 CROS TRAINER 13 11.36
15 01:45:40 216 BERRIET FLORIAN SEM 3 M 14 11.36
16 01:46:51 280 LEJEUNE SEBASTIEN M1M 4 M 15 11.23
17 01:47:29 242 DURY JEREMY M0M 3 M 16 ROGNAC ATHLETIC CLUB 11.16
18 01:47:51 239 DECUGIS CHARLES SEM 4 M 17 11.13
19 01:48:56 219 BOCK FRANCOIS-XAVIER SEM 5 M 18 GSBDD ISTRES-SALON 11.02
20 01:49:30 329 VANIER YANNICK M3M 5 M 19 SPEEDY CLUB DE PROVENCE 10.96
21 01:51:00 325 THIERY FRANCK M3M 6 M 20 CHEVALIERS DE CALES 10.81
22 01:51:02 299 MUSCARNERA LAURENT M0M 4 M 21 BOUC BEL AIR TRAIL CLUB 10.81
23 01:51:12 321 SZCZERBA DIMITRI M2M 1 M 22 CSPCG 13 10.79
24 01:51:30 323 TEISSIER STEPHANE M2M 2 M 23 VITROLLES TRIATHLON 10.76
25 01:52:01 314 ROSSI FREDERIC M0M 5 M 24 COURIR A VELAUX 10.71
26 01:52:05 218 BLACHERE CHRISTIAN M5M 2 M 25 10.71
27 01:52:11 291 MATUR VERONIQUE M3F 1 F 2 SPEEDY CLUB DE PROVENCE 10.70
28 01:52:41 270 JOURDAN ALEXIS SEM 6 M 26 10.65
29 01:52:46 324 TENDRON XAVIER M1M 5 M 27 10.64
30 01:52:48 341 REYNAUD FRANCK M1M 6 M 28 RAC 10.64
31 01:53:03 336 NINCI PATRICE M1M 7 M 29 10.61
32 01:53:52 255 GALANAKIS ERIC M4M 2 M 30 AIX ATHLE PROVENCE 10.54
33 01:54:10 238 CREPATTE STEPHANE SEM 7 M 31 10.51
34 01:54:40 211 BARONI PATRICK M4M 3 M 32 ROGNAC AC 10.47
35 01:54:52 302 NICOLAS BENOIT M1M 8 M 33 TARAHUMARA 10.45
36 01:55:49 290 MATTEI DIDIER M3M 7 M 34 10.36
37 01:56:00 293 MAURIN PHILIPPE M2M 3 M 35 10.34
38 01:56:58 312 RENAUD PATRICK M3M 8 M 36 10.26
39 01:57:48 285 LYONNET STEPHANE M1M 9 M 37 10.19
40 01:58:09 342 GIULIANI JULIEN M1M 10 M 38 NWA 10.16
41 01:58:09 230 CANAULT MATTHIAS M1M 11 M 39 10.16
42 01:58:09 276 LALLEMAND PASCAL M2M 4 M 40 TRIATHLAIX 10.16
43 01:59:22 220 BOCQUET OLIVIER M1M 12 M 41 TRIATHL'AIX 10.05
44 01:59:25 264 GUMB CEDRIC M1M 13 M 42 TEAM GUMB 10.05
45 01:59:42 279 LEBON FREDERIC M4M 4 M 43 10.03
46 02:00:43 337 CAUCHY LAURENT M5M 3 M 44 CABBA 9.94
47 02:01:04 340 GAUTTIER GUILLAUME M3M 9 M 45 ALLUMES 9.91
48 02:01:51 268 HOPP CEDRIC M2M 5 M 46 NAOS 9.85
49 02:01:59 204 ARNAUD GERARD M6M 1 M 47 9.84
50 02:02:16 274 KERN FRANCOIS M0M 6 M 48 9.81
51 02:03:07 259 GAYDON ANTHONY SEM 8 M 49 9.75
52 02:03:18 297 MIRETTI GUILLAUME M1M 14 M 50 9.73
53 02:03:40 301 NAVELOT MATHIEU M0M 7 M 51 CABBA 9.70
54 02:04:38 263 GRALL ERIC M3M 10 M 52 9.63
55 02:05:04 271 JUSTAFRE ANDRE M2M 6 M 53 COUDOUX OLYMPIQUE 9.59
56 02:05:04 246 ETTER MATHIEU M1M 15 M 54 9.59
57 02:05:06 232 CHANTRY JEAN-PAUL M4M 5 M 55 9.59
58 02:05:13 207 AUBERT CHRISTIAN M6M 2 M 56 TEAM CORBU 9.58
59 02:05:28 296 MERGUI SANDRINE M2F 1 F 3 9.56
60 02:05:34 308 POURCHIER DAVID M0M 8 M 57 9.56
61 02:05:42 260 GIANA MARION M0F 2 F 4 TEAM BLOC BOUCHARD 9.55
62 02:05:48 287 MARCHAL JULIEN M0M 9 M 58 9.54
63 02:06:22 212 BARRABES PAUL M0M 10 M 59 IJEDI 9.50
64 02:06:31 262 GIORGI LIONEL M1M 16 M 60 9.48
65 02:06:32 309 PRZYSIEK FRANCK M2M 7 M 61 9.48
66 02:07:35 295 MENINA ALI-ISAAC SEM 9 M 62 9.41
67 02:08:31 322 TANCREDI DONATO M0M 11 M 63 CABBA 9.34
68 02:09:00 338 TOURNEMILLE JEROME M3M 11 M 64 SPEEDY CLUB DE PROVENCE 9.30
69 02:09:13 272 KARCHER CHRISTOPHE M3M 12 M 65 CHRONOLIBRE 9.29
70 02:09:38 320 STEFFEN FLORIAN SEM 10 M 66 9.26
71 02:10:17 223 BONNIN NICOLAS M1M 17 M 67 9.21
72 02:10:36 224 BOURDON BRIGITTE M4F 1 F 5 COURIR A SAUSSET 9.19
73 02:11:13 339 DES-DOZEAULX CHRISTOPHE M1M 18 M 68 9.15
74 02:11:21 206 ARRIGHI JEAN-PHILIPPE M2M 8 M 69 9.14
75 02:11:29 317 SANTANTONIO DIDIER M2M 9 M 70 9.13
76 02:11:30 281 LOPEZ JUAN-CARLOS M6M 3 M 71 LES ALLUMES DE LA STE VICTOIRE 9.13
77 02:11:45 313 RICHARD CHRISTOPHE M3M 13 M 72 VITROLLES MULTI SPORT 9.11
78 02:12:02 222 BONNIN GUILLAUME M1M 19 M 73 CHOURMO FC 9.09
79 02:12:06 269 IMBERT ELISE M0F 3 F 6 COURIR A VELAUX 9.08
80 02:14:11 250 FONTAINE-RICHARD JOHANNA M0F 4 F 7 8.94
81 02:14:20 292 MAUBARET GIOVANNI ESM 1 M 74 COPAIN& COPINE 8.93
82 02:14:40 203 ARENA-CANAULT SILVIA M1F 1 F 8 RUN& CHANGE 8.91
83 02:14:44 273 KARTALIAN LIONEL M2M 10 M 75 VENT QUI COURT 8.91
84 02:15:52 328 TRUONG ROBERT M4M 6 M 76 ROGNAC ATHLETIC CLUB 8.83
85 02:17:55 315 RUHBAUM YANNICK SEM 11 M 77 8.70
86 02:18:42 289 MATABON GILLES M2M 11 M 78 VO3MAX 8.65
87 02:19:02 247 FABRE JEAN-MARC M4M 7 M 79 8.63
88 02:19:02 244 EL-ATALLATI JOHAN SEM 12 M 80 8.63
89 02:19:20 261 GIORDANO LOIC M1M 20 M 81 8.61
90 02:21:01 258 GAY SANDRINE M1F 2 F 9 8.51
91 02:21:40 241 DEYNIS LAURENT M2M 12 M 82 8.47
92 02:21:54 249 FONSA LESLIE M0F 5 F 10 8.46
93 02:22:23 307 PONS SYLVIA M2F 2 F 11 LFA TRETS 8.43
94 02:22:35 256 GALANTI BERNARD M3M 14 M 83 CLES GARDANNE 8.42
95 02:22:36 257 GALANTI SABINE M2F 3 F 12 CLES GARDANNE 8.42
96 02:23:17 251 FOREST ANNE-CELINE M2F 4 F 13 8.38
97 02:23:35 334 SALADE REMY M1M 21 M 84 8.36
98 02:23:40 294 MELOT ALEXIS SEM 13 M 85 8.35
99 02:23:46 282 LOUIS MARIE-LAURE M1F 3 F 14 TEAM BLOC BOUCHARD 8.35
100 02:25:22 245 ENFRAZE SEBASTIEN M0M 12 M 86 8.25